sensor_id;sensor_type;location;lat;lon;timestamp;P1;durP1;ratioP1;P2;durP2;ratioP2
62121;SDS011;48108;47.532;19.084;2023-07-24T04:02:35;6.57;;;4.82;;
62121;SDS011;48108;47.532;19.084;2023-07-24T04:05:38;7.15;;;4.95;;
62121;SDS011;48108;47.532;19.084;2023-07-24T04:08:40;6.95;;;5.10;;
62121;SDS011;48108;47.532;19.084;2023-07-24T04:11:43;7.10;;;5.00;;
62121;SDS011;48108;47.532;19.084;2023-07-24T04:14:46;6.50;;;5.10;;
62121;SDS011;48108;47.532;19.084;2023-07-24T04:17:51;10.27;;;5.35;;
62121;SDS011;48108;47.532;19.084;2023-07-24T04:20:55;7.35;;;5.20;;
62121;SDS011;48108;47.532;19.084;2023-07-24T04:23:58;9.18;;;4.90;;
62121;SDS011;48108;47.532;19.084;2023-07-24T04:27:01;9.27;;;4.97;;
62121;SDS011;48108;47.532;19.084;2023-07-24T04:30:04;7.12;;;4.93;;
62121;SDS011;48108;47.532;19.084;2023-07-24T04:33:07;6.43;;;5.12;;
62121;SDS011;48108;47.532;19.084;2023-07-24T04:36:10;5.87;;;5.07;;
62121;SDS011;48108;47.532;19.084;2023-07-24T04:39:13;8.57;;;5.40;;
62121;SDS011;48108;47.532;19.084;2023-07-24T04:42:16;7.60;;;5.20;;
62121;SDS011;48108;47.532;19.084;2023-07-24T04:45:18;9.05;;;5.57;;
62121;SDS011;48108;47.532;19.084;2023-07-24T04:48:25;7.75;;;4.93;;
62121;SDS011;48108;47.532;19.084;2023-07-24T04:51:28;6.87;;;5.28;;
62121;SDS011;48108;47.532;19.084;2023-07-24T04:54:30;9.13;;;5.80;;
62121;SDS011;48108;47.532;19.084;2023-07-24T04:57:33;7.32;;;5.43;;
62121;SDS011;48108;47.532;19.084;2023-07-24T05:00:36;7.57;;;5.30;;
62121;SDS011;48108;47.532;19.084;2023-07-24T05:03:39;10.15;;;5.62;;
62121;SDS011;48108;47.532;19.084;2023-07-24T05:06:42;10.38;;;5.68;;
62121;SDS011;48108;47.532;19.084;2023-07-24T05:09:44;9.35;;;5.57;;
62121;SDS011;48108;47.532;19.084;2023-07-24T05:12:47;7.47;;;5.35;;
62121;SDS011;48108;47.532;19.084;2023-07-24T05:15:50;8.93;;;5.75;;
62121;SDS011;48108;47.532;19.084;2023-07-24T05:18:53;7.37;;;5.57;;
62121;SDS011;48108;47.532;19.084;2023-07-24T05:21:56;7.72;;;5.55;;
62121;SDS011;48108;47.532;19.084;2023-07-24T05:24:59;7.68;;;5.50;;
62121;SDS011;48108;47.532;19.084;2023-07-24T05:28:01;9.07;;;5.20;;
62121;SDS011;48108;47.532;19.084;2023-07-24T05:31:04;7.50;;;5.72;;
62121;SDS011;48108;47.532;19.084;2023-07-24T05:34:08;6.87;;;5.20;;
62121;SDS011;48108;47.532;19.084;2023-07-24T05:37:10;7.60;;;5.43;;
62121;SDS011;48108;47.532;19.084;2023-07-24T05:40:13;10.43;;;6.03;;
62121;SDS011;48108;47.532;19.084;2023-07-24T05:43:16;8.35;;;5.70;;
62121;SDS011;48108;47.532;19.084;2023-07-24T05:46:19;8.98;;;5.12;;
62121;SDS011;48108;47.532;19.084;2023-07-24T05:49:22;8.82;;;5.12;;
62121;SDS011;48108;47.532;19.084;2023-07-24T05:52:24;7.25;;;5.75;;
62121;SDS011;48108;47.532;19.084;2023-07-24T05:55:27;10.02;;;6.10;;
62121;SDS011;48108;47.532;19.084;2023-07-24T05:58:30;11.93;;;6.07;;
62121;SDS011;48108;47.532;19.084;2023-07-24T06:01:33;7.05;;;5.28;;
62121;SDS011;48108;47.532;19.084;2023-07-24T06:04:36;9.90;;;5.85;;
62121;SDS011;48108;47.532;19.084;2023-07-24T06:07:39;9.32;;;5.62;;
62121;SDS011;48108;47.532;19.084;2023-07-24T06:10:42;7.82;;;5.80;;
62121;SDS011;48108;47.532;19.084;2023-07-24T06:13:44;10.70;;;5.85;;
62121;SDS011;48108;47.532;19.084;2023-07-24T06:16:47;9.48;;;5.90;;
62121;SDS011;48108;47.532;19.084;2023-07-24T06:19:50;7.05;;;5.57;;
62121;SDS011;48108;47.532;19.084;2023-07-24T06:22:53;7.28;;;5.30;;
62121;SDS011;48108;47.532;19.084;2023-07-24T06:25:56;8.07;;;5.32;;
62121;SDS011;48108;47.532;19.084;2023-07-24T06:28:59;7.65;;;5.28;;
62121;SDS011;48108;47.532;19.084;2023-07-24T06:32:01;9.02;;;5.22;;
62121;SDS011;48108;47.532;19.084;2023-07-24T06:35:05;9.75;;;6.12;;
62121;SDS011;48108;47.532;19.084;2023-07-24T06:38:09;8.27;;;5.70;;
62121;SDS011;48108;47.532;19.084;2023-07-24T06:41:12;7.57;;;5.55;;
62121;SDS011;48108;47.532;19.084;2023-07-24T06:44:14;11.15;;;5.85;;
62121;SDS011;48108;47.532;19.084;2023-07-24T06:47:17;9.07;;;5.57;;
62121;SDS011;48108;47.532;19.084;2023-07-24T06:50:20;9.02;;;5.85;;
62121;SDS011;48108;47.532;19.084;2023-07-24T06:53:23;8.68;;;5.93;;
62121;SDS011;48108;47.532;19.084;2023-07-24T06:56:26;8.10;;;5.43;;
62121;SDS011;48108;47.532;19.084;2023-07-24T06:59:29;9.48;;;5.62;;
62121;SDS011;48108;47.532;19.084;2023-07-24T07:02:32;10.70;;;6.32;;
62121;SDS011;48108;47.532;19.084;2023-07-24T07:05:35;9.85;;;5.87;;
62121;SDS011;48108;47.532;19.084;2023-07-24T07:08:38;7.62;;;5.20;;
62121;SDS011;48108;47.532;19.084;2023-07-24T07:11:41;7.15;;;5.18;;
62121;SDS011;48108;47.532;19.084;2023-07-24T07:14:45;6.15;;;4.93;;
62121;SDS011;48108;47.532;19.084;2023-07-24T07:17:48;10.73;;;5.85;;
62121;SDS011;48108;47.532;19.084;2023-07-24T07:20:51;9.73;;;6.30;;
62121;SDS011;48108;47.532;19.084;2023-07-24T07:23:55;7.50;;;5.18;;
62121;SDS011;48108;47.532;19.084;2023-07-24T07:26:58;7.82;;;5.65;;
62121;SDS011;48108;47.532;19.084;2023-07-24T07:30:01;7.85;;;4.87;;
62121;SDS011;48108;47.532;19.084;2023-07-24T07:33:04;7.10;;;5.25;;
62121;SDS011;48108;47.532;19.084;2023-07-24T07:36:08;10.55;;;5.40;;
62121;SDS011;48108;47.532;19.084;2023-07-24T07:39:11;10.25;;;5.55;;
62121;SDS011;48108;47.532;19.084;2023-07-24T07:42:14;7.60;;;5.10;;
62121;SDS011;48108;47.532;19.084;2023-07-24T07:45:20;8.32;;;5.15;;
62121;SDS011;48108;47.532;19.084;2023-07-24T07:48:23;7.55;;;5.10;;
62121;SDS011;48108;47.532;19.084;2023-07-24T07:51:26;8.05;;;5.47;;
62121;SDS011;48108;47.532;19.084;2023-07-24T07:54:29;8.88;;;5.53;;
62121;SDS011;48108;47.532;19.084;2023-07-24T07:57:36;8.40;;;5.47;;
62121;SDS011;48108;47.532;19.084;2023-07-24T08:00:40;8.98;;;5.20;;
62121;SDS011;48108;47.532;19.084;2023-07-24T08:03:43;7.95;;;4.80;;
62121;SDS011;48108;47.532;19.084;2023-07-24T08:06:48;9.32;;;5.18;;
62121;SDS011;48108;47.532;19.084;2023-07-24T08:09:51;9.30;;;5.15;;
62121;SDS011;48108;47.532;19.084;2023-07-24T08:12:53;8.18;;;5.28;;
62121;SDS011;48108;47.532;19.084;2023-07-24T08:15:56;11.90;;;4.93;;
62121;SDS011;48108;47.532;19.084;2023-07-24T08:18:59;8.88;;;5.32;;
62121;SDS011;48108;47.532;19.084;2023-07-24T08:22:02;10.70;;;5.18;;
62121;SDS011;48108;47.532;19.084;2023-07-24T08:25:07;8.95;;;4.70;;
62121;SDS011;48108;47.532;19.084;2023-07-24T08:28:10;7.20;;;5.25;;
62121;SDS011;48108;47.532;19.084;2023-07-24T08:31:13;7.03;;;5.10;;
62121;SDS011;48108;47.532;19.084;2023-07-24T08:34:16;8.95;;;5.78;;
62121;SDS011;48108;47.532;19.084;2023-07-24T08:37:19;9.13;;;5.12;;
62121;SDS011;48108;47.532;19.084;2023-07-24T08:40:22;8.07;;;4.68;;
62121;SDS011;48108;47.532;19.084;2023-07-24T08:43:24;7.37;;;4.90;;
62121;SDS011;48108;47.532;19.084;2023-07-24T08:46:28;6.85;;;4.90;;
62121;SDS011;48108;47.532;19.084;2023-07-24T08:49:32;10.50;;;5.10;;
62121;SDS011;48108;47.532;19.084;2023-07-24T08:52:40;9.90;;;5.22;;
62121;SDS011;48108;47.532;19.084;2023-07-24T08:55:45;8.77;;;5.10;;
62121;SDS011;48108;47.532;19.084;2023-07-24T08:58:51;10.10;;;5.32;;
62121;SDS011;48108;47.532;19.084;2023-07-24T09:01:54;10.48;;;5.25;;
62121;SDS011;48108;47.532;19.084;2023-07-24T09:04:57;10.45;;;5.12;;
62121;SDS011;48108;47.532;19.084;2023-07-24T09:08:00;8.45;;;4.97;;
62121;SDS011;48108;47.532;19.084;2023-07-24T09:11:04;8.63;;;5.22;;
62121;SDS011;48108;47.532;19.084;2023-07-24T09:14:08;6.70;;;4.75;;
62121;SDS011;48108;47.532;19.084;2023-07-24T09:17:24;8.20;;;5.20;;
62121;SDS011;48108;47.532;19.084;2023-07-24T09:20:37;8.13;;;4.90;;
62121;SDS011;48108;47.532;19.084;2023-07-24T09:23:41;7.53;;;5.07;;
62121;SDS011;48108;47.532;19.084;2023-07-24T09:29:51;8.40;;;4.80;;
62121;SDS011;48108;47.532;19.084;2023-07-24T09:32:54;7.57;;;4.60;;
62121;SDS011;48108;47.532;19.084;2023-07-24T09:36:00;8.38;;;4.85;;
62121;SDS011;48108;47.532;19.084;2023-07-24T09:39:04;9.40;;;5.20;;
62121;SDS011;48108;47.532;19.084;2023-07-24T09:42:08;9.32;;;5.25;;
62121;SDS011;48108;47.532;19.084;2023-07-24T09:45:11;10.25;;;5.37;;
62121;SDS011;48108;47.532;19.084;2023-07-24T09:48:15;10.25;;;5.47;;
62121;SDS011;48108;47.532;19.084;2023-07-24T09:51:38;10.60;;;5.43;;
62121;SDS011;48108;47.532;19.084;2023-07-24T09:58:13;11.27;;;5.05;;
62121;SDS011;48108;47.532;19.084;2023-07-24T10:01:18;10.65;;;5.70;;
62121;SDS011;48108;47.532;19.084;2023-07-24T10:04:21;12.30;;;5.25;;
62121;SDS011;48108;47.532;19.084;2023-07-24T10:07:26;9.13;;;5.10;;
62121;SDS011;48108;47.532;19.084;2023-07-24T10:10:30;9.93;;;5.43;;
62121;SDS011;48108;47.532;19.084;2023-07-24T10:13:34;11.02;;;5.57;;
62121;SDS011;48108;47.532;19.084;2023-07-24T10:16:39;30.83;;;9.60;;
62121;SDS011;48108;47.532;19.084;2023-07-24T10:19:43;11.15;;;6.00;;
62121;SDS011;48108;47.532;19.084;2023-07-24T10:22:45;10.68;;;5.32;;
62121;SDS011;48108;47.532;19.084;2023-07-24T10:25:49;11.38;;;5.80;;
62121;SDS011;48108;47.532;19.084;2023-07-24T10:28:53;9.15;;;5.40;;
62121;SDS011;48108;47.532;19.084;2023-07-24T10:31:56;12.13;;;5.68;;
62121;SDS011;48108;47.532;19.084;2023-07-24T10:35:05;10.40;;;5.60;;
62121;SDS011;48108;47.532;19.084;2023-07-24T10:38:13;11.57;;;6.00;;
62121;SDS011;48108;47.532;19.084;2023-07-24T10:41:18;13.30;;;5.78;;
62121;SDS011;48108;47.532;19.084;2023-07-24T10:44:29;13.35;;;5.72;;
62121;SDS011;48108;47.532;19.084;2023-07-24T10:47:34;11.50;;;5.70;;
62121;SDS011;48108;47.532;19.084;2023-07-24T10:50:37;13.52;;;6.03;;
62121;SDS011;48108;47.532;19.084;2023-07-24T10:53:43;12.13;;;5.43;;
62121;SDS011;48108;47.532;19.084;2023-07-24T10:56:47;11.88;;;5.85;;
62121;SDS011;48108;47.532;19.084;2023-07-24T10:59:53;9.98;;;5.65;;
62121;SDS011;48108;47.532;19.084;2023-07-24T11:02:56;12.95;;;6.40;;
62121;SDS011;48108;47.532;19.084;2023-07-24T11:05:59;11.10;;;5.82;;
62121;SDS011;48108;47.532;19.084;2023-07-24T11:09:02;9.98;;;5.65;;
62121;SDS011;48108;47.532;19.084;2023-07-24T11:12:14;11.70;;;5.95;;
62121;SDS011;48108;47.532;19.084;2023-07-24T11:15:23;12.23;;;5.20;;
62121;SDS011;48108;47.532;19.084;2023-07-24T11:18:28;11.60;;;5.93;;
62121;SDS011;48108;47.532;19.084;2023-07-24T11:21:52;10.43;;;6.15;;
62121;SDS011;48108;47.532;19.084;2023-07-24T11:24:56;9.45;;;5.70;;
62121;SDS011;48108;47.532;19.084;2023-07-24T11:27:59;8.55;;;4.75;;
62121;SDS011;48108;47.532;19.084;2023-07-24T11:31:02;10.00;;;5.32;;
62121;SDS011;48108;47.532;19.084;2023-07-24T11:34:05;9.40;;;5.00;;
62121;SDS011;48108;47.532;19.084;2023-07-24T11:37:08;9.70;;;5.43;;
62121;SDS011;48108;47.532;19.084;2023-07-24T11:40:11;10.45;;;5.53;;
62121;SDS011;48108;47.532;19.084;2023-07-24T11:43:18;11.45;;;5.45;;
62121;SDS011;48108;47.532;19.084;2023-07-24T11:46:24;6.90;;;4.90;;
62121;SDS011;48108;47.532;19.084;2023-07-24T11:49:28;8.25;;;4.70;;
62121;SDS011;48108;47.532;19.084;2023-07-24T11:52:46;8.27;;;4.60;;
62121;SDS011;48108;47.532;19.084;2023-07-24T11:55:51;10.10;;;4.50;;
62121;SDS011;48108;47.532;19.084;2023-07-24T11:58:54;9.77;;;5.03;;
62121;SDS011;48108;47.532;19.084;2023-07-24T12:01:57;8.10;;;4.50;;
62121;SDS011;48108;47.532;19.084;2023-07-24T12:05:00;8.98;;;4.60;;
62121;SDS011;48108;47.532;19.084;2023-07-24T12:08:03;8.02;;;4.82;;
62121;SDS011;48108;47.532;19.084;2023-07-24T12:11:15;5.90;;;4.53;;
62121;SDS011;48108;47.532;19.084;2023-07-24T12:14:19;6.43;;;4.68;;
62121;SDS011;48108;47.532;19.084;2023-07-24T12:17:22;6.45;;;4.50;;
62121;SDS011;48108;47.532;19.084;2023-07-24T12:20:25;8.48;;;4.70;;
62121;SDS011;48108;47.532;19.084;2023-07-24T12:23:28;7.40;;;4.37;;
62121;SDS011;48108;47.532;19.084;2023-07-24T12:26:31;8.38;;;4.65;;
62121;SDS011;48108;47.532;19.084;2023-07-24T12:29:34;8.10;;;4.65;;
62121;SDS011;48108;47.532;19.084;2023-07-24T12:32:37;6.65;;;4.60;;
62121;SDS011;48108;47.532;19.084;2023-07-24T12:35:41;9.27;;;5.28;;
62121;SDS011;48108;47.532;19.084;2023-07-24T12:38:43;8.27;;;4.65;;
62121;SDS011;48108;47.532;19.084;2023-07-24T12:41:49;8.18;;;4.68;;
62121;SDS011;48108;47.532;19.084;2023-07-24T12:44:52;8.38;;;4.60;;
62121;SDS011;48108;47.532;19.084;2023-07-24T12:47:55;7.55;;;4.80;;
62121;SDS011;48108;47.532;19.084;2023-07-24T12:51:00;7.68;;;4.35;;
62121;SDS011;48108;47.532;19.084;2023-07-24T12:54:04;7.78;;;4.68;;
62121;SDS011;48108;47.532;19.084;2023-07-24T12:57:24;8.38;;;4.22;;
62121;SDS011;48108;47.532;19.084;2023-07-24T13:00:29;10.00;;;4.87;;
62121;SDS011;48108;47.532;19.084;2023-07-24T13:03:32;8.38;;;4.45;;
62121;SDS011;48108;47.532;19.084;2023-07-24T13:06:36;8.15;;;4.07;;
62121;SDS011;48108;47.532;19.084;2023-07-24T13:09:38;7.40;;;3.85;;
62121;SDS011;48108;47.532;19.084;2023-07-24T13:12:41;7.78;;;4.05;;
62121;SDS011;48108;47.532;19.084;2023-07-24T13:15:44;6.72;;;3.90;;
62121;SDS011;48108;47.532;19.084;2023-07-24T13:18:47;6.65;;;3.95;;
62121;SDS011;48108;47.532;19.084;2023-07-24T13:21:51;8.75;;;4.22;;
62121;SDS011;48108;47.532;19.084;2023-07-24T13:24:54;7.03;;;4.40;;
62121;SDS011;48108;47.532;19.084;2023-07-24T13:27:57;7.15;;;4.37;;
62121;SDS011;48108;47.532;19.084;2023-07-24T13:31:10;7.87;;;4.30;;
62121;SDS011;48108;47.532;19.084;2023-07-24T13:34:14;8.52;;;4.82;;
62121;SDS011;48108;47.532;19.084;2023-07-24T13:37:20;7.50;;;4.50;;
62121;SDS011;48108;47.532;19.084;2023-07-24T13:40:23;7.32;;;4.90;;
62121;SDS011;48108;47.532;19.084;2023-07-24T13:43:27;7.70;;;4.40;;
62121;SDS011;48108;47.532;19.084;2023-07-24T13:46:31;6.80;;;4.97;;
62121;SDS011;48108;47.532;19.084;2023-07-24T13:49:33;8.38;;;4.80;;
62121;SDS011;48108;47.532;19.084;2023-07-24T13:52:37;9.18;;;5.53;;
62121;SDS011;48108;47.532;19.084;2023-07-24T13:55:40;11.70;;;5.50;;
62121;SDS011;48108;47.532;19.084;2023-07-24T13:58:43;9.75;;;6.03;;
62121;SDS011;48108;47.532;19.084;2023-07-24T14:01:45;10.13;;;5.72;;
62121;SDS011;48108;47.532;19.084;2023-07-24T14:04:52;11.20;;;5.78;;
62121;SDS011;48108;47.532;19.084;2023-07-24T14:07:55;11.07;;;6.20;;
62121;SDS011;48108;47.532;19.084;2023-07-24T14:10:58;10.60;;;5.75;;
62121;SDS011;48108;47.532;19.084;2023-07-24T14:14:01;10.27;;;5.97;;
62121;SDS011;48108;47.532;19.084;2023-07-24T14:17:04;12.68;;;6.78;;
62121;SDS011;48108;47.532;19.084;2023-07-24T14:20:07;12.70;;;6.35;;
62121;SDS011;48108;47.532;19.084;2023-07-24T14:23:11;14.07;;;6.50;;
62121;SDS011;48108;47.532;19.084;2023-07-24T14:26:14;10.85;;;6.32;;
62121;SDS011;48108;47.532;19.084;2023-07-24T14:29:17;13.77;;;7.03;;
62121;SDS011;48108;47.532;19.084;2023-07-24T14:32:20;13.02;;;7.25;;
62121;SDS011;48108;47.532;19.084;2023-07-24T14:35:23;20.05;;;7.35;;
62121;SDS011;48108;47.532;19.084;2023-07-24T14:38:25;12.63;;;6.55;;
62121;SDS011;48108;47.532;19.084;2023-07-24T14:41:29;14.43;;;6.32;;
62121;SDS011;48108;47.532;19.084;2023-07-24T14:44:32;14.10;;;6.07;;
62121;SDS011;48108;47.532;19.084;2023-07-24T14:47:35;12.23;;;5.82;;
62121;SDS011;48108;47.532;19.084;2023-07-24T14:50:38;12.35;;;6.70;;
62121;SDS011;48108;47.532;19.084;2023-07-24T14:53:41;12.80;;;6.82;;
62121;SDS011;48108;47.532;19.084;2023-07-24T14:56:44;13.13;;;6.90;;
62121;SDS011;48108;47.532;19.084;2023-07-24T15:00:03;13.95;;;6.75;;
62121;SDS011;48108;47.532;19.084;2023-07-24T15:03:06;13.20;;;6.55;;
62121;SDS011;48108;47.532;19.084;2023-07-24T15:06:09;11.00;;;5.97;;
62121;SDS011;48108;47.532;19.084;2023-07-24T15:09:12;12.25;;;6.40;;
62121;SDS011;48108;47.532;19.084;2023-07-24T15:12:15;15.80;;;6.72;;
62121;SDS011;48108;47.532;19.084;2023-07-24T15:15:17;12.23;;;6.35;;
62121;SDS011;48108;47.532;19.084;2023-07-24T15:18:20;14.13;;;6.15;;
62121;SDS011;48108;47.532;19.084;2023-07-24T15:21:23;13.82;;;6.62;;
62121;SDS011;48108;47.532;19.084;2023-07-24T15:24:28;15.98;;;6.65;;
62121;SDS011;48108;47.532;19.084;2023-07-24T15:27:31;12.40;;;6.20;;
62121;SDS011;48108;47.532;19.084;2023-07-24T15:30:34;12.68;;;6.37;;
62121;SDS011;48108;47.532;19.084;2023-07-24T15:33:36;14.18;;;6.35;;
62121;SDS011;48108;47.532;19.084;2023-07-24T15:36:39;16.48;;;5.82;;
62121;SDS011;48108;47.532;19.084;2023-07-24T15:39:42;15.73;;;6.40;;
62121;SDS011;48108;47.532;19.084;2023-07-24T15:42:45;13.85;;;6.70;;
62121;SDS011;48108;47.532;19.084;2023-07-24T15:45:49;10.38;;;6.37;;
62121;SDS011;48108;47.532;19.084;2023-07-24T15:48:52;12.00;;;6.37;;
62121;SDS011;48108;47.532;19.084;2023-07-24T15:51:55;12.10;;;6.20;;
62121;SDS011;48108;47.532;19.084;2023-07-24T15:54:58;10.63;;;6.03;;
